Time;durP1;ratioP1;P1;durP2;ratioP2;P2;SDS_P1;SDS_P2;PMS_P1;PMS_P2;Temp;Humidity;BMP_temperature;BMP_pressure;BME280_temperature;BME280_humidity;BME280_pressure;Samples;Min_cycle;Max_cycle;Signal;HPM_P1;HPM_P2
2022/07/15 00:00:23;;;;;;;2.60;0.95;;;;;;;;;;5085594;27;20230;-51
2022/07/15 00:02:49;;;;;;;3.17;1.45;;;;;;;;;;5084279;27;20230;-52
2022/07/15 00:05:16;;;;;;;4.20;0.95;;;;;;;;;;5083431;27;20226;-50
2022/07/15 00:07:42;;;;;;;1.17;0.90;;;;;;;;;;5077707;27;20230;-53
2022/07/15 00:10:15;;;;;;;3.00;1.20;;;;;;;;;;5082590;27;20245;-52
2022/07/15 00:12:41;;;;;;;0.90;0.90;;;;;;;;;;5084113;27;20708;-51
2022/07/15 00:15:10;;;;;;;0.85;0.85;;;;;;;;;;5084712;27;20589;-51
2022/07/15 00:17:36;;;;;;;1.88;1.00;;;;;;;;;;5083910;27;20252;-51
2022/07/15 00:20:03;;;;;;;1.42;1.02;;;;;;;;;;5082028;27;20692;-51
2022/07/15 00:22:29;;;;;;;1.73;1.13;;;;;;;;;;5083330;27;20231;-51
2022/07/15 00:24:56;;;;;;;1.10;1.02;;;;;;;;;;5079364;27;20234;-50
2022/07/15 00:27:22;;;;;;;1.40;0.80;;;;;;;;;;5084969;27;20226;-51
2022/07/15 00:29:48;;;;;;;2.33;1.02;;;;;;;;;;5077663;27;20790;-51
2022/07/15 00:32:16;;;;;;;3.17;1.17;;;;;;;;;;5079418;27;20227;-51
2022/07/15 00:34:42;;;;;;;1.90;1.15;;;;;;;;;;5083874;27;20239;-51
2022/07/15 00:37:09;;;;;;;1.75;0.95;;;;;;;;;;5083795;27;20234;-51
2022/07/15 00:39:35;;;;;;;2.65;1.55;;;;;;;;;;5083894;28;20234;-52
2022/07/15 00:42:01;;;;;;;5.10;1.10;;;;;;;;;;5085967;27;20237;-53
2022/07/15 00:44:28;;;;;;;1.90;1.33;;;;;;;;;;5085621;27;20655;-51
2022/07/15 00:46:54;;;;;;;1.45;1.00;;;;;;;;;;5081398;27;20227;-51
2022/07/15 00:49:22;;;;;;;2.63;1.05;;;;;;;;;;5080964;27;20359;-52
2022/07/15 00:51:51;;;;;;;1.25;0.80;;;;;;;;;;5083058;27;20234;-51
2022/07/15 00:54:18;;;;;;;1.75;1.63;;;;;;;;;;5077801;27;20231;-51
2022/07/15 00:56:46;;;;;;;2.92;0.93;;;;;;;;;;5082985;27;20496;-51
2022/07/15 00:59:13;;;;;;;1.67;1.17;;;;;;;;;;5079368;27;20239;-52
2022/07/15 01:01:40;;;;;;;3.70;1.48;;;;;;;;;;5083939;28;20240;-52
2022/07/15 01:04:07;;;;;;;1.92;1.10;;;;;;;;;;5082692;27;20234;-51
2022/07/15 01:06:34;;;;;;;1.27;0.70;;;;;;;;;;5083577;27;20225;-52
2022/07/15 01:09:01;;;;;;;2.63;1.17;;;;;;;;;;5082428;28;20242;-51
2022/07/15 01:11:30;;;;;;;3.13;1.67;;;;;;;;;;5079023;28;20230;-52
2022/07/15 01:13:56;;;;;;;3.65;0.98;;;;;;;;;;5074297;27;20234;-52
2022/07/15 01:16:22;;;;;;;2.65;1.27;;;;;;;;;;5079496;27;20317;-52
2022/07/15 01:18:49;;;;;;;4.10;1.48;;;;;;;;;;5084090;27;20824;-51
2022/07/15 01:21:16;;;;;;;4.38;1.60;;;;;;;;;;5084289;28;20238;-52
2022/07/15 01:23:43;;;;;;;1.63;1.20;;;;;;;;;;5080068;27;20241;-51
2022/07/15 01:26:11;;;;;;;1.05;0.85;;;;;;;;;;5082661;28;20280;-51
2022/07/15 01:28:37;;;;;;;1.95;1.40;;;;;;;;;;5082316;28;20292;-51
2022/07/15 01:31:04;;;;;;;3.60;1.70;;;;;;;;;;5073500;27;20731;-51
2022/07/15 01:33:31;;;;;;;1.35;1.20;;;;;;;;;;5083035;27;20309;-51
2022/07/15 01:35:58;;;;;;;4.05;1.45;;;;;;;;;;5083495;28;20237;-50
2022/07/15 01:38:26;;;;;;;3.55;1.17;;;;;;;;;;5083533;27;20233;-51
2022/07/15 01:40:53;;;;;;;2.47;1.10;;;;;;;;;;5082952;27;20596;-54
2022/07/15 01:43:19;;;;;;;3.22;1.45;;;;;;;;;;5084137;27;20239;-51
2022/07/15 01:45:46;;;;;;;2.15;1.40;;;;;;;;;;5078920;27;20230;-51
2022/07/15 01:51:06;;;;;;;4.28;0.90;;;;;;;;;;5036836;27;21126;-51
2022/07/15 01:53:33;;;;;;;3.72;1.52;;;;;;;;;;5026140;28;20248;-52
2022/07/15 01:55:59;;;;;;;5.35;1.20;;;;;;;;;;5020399;28;20252;-51
2022/07/15 01:58:25;;;;;;;3.25;1.98;;;;;;;;;;5011808;28;20248;-52
2022/07/15 02:00:52;;;;;;;2.08;1.08;;;;;;;;;;5014421;28;20237;-52
2022/07/15 02:03:18;;;;;;;5.13;2.20;;;;;;;;;;5012362;28;20228;-52
2022/07/15 02:05:44;;;;;;;4.75;1.65;;;;;;;;;;5021693;28;20235;-51
2022/07/15 02:08:12;;;;;;;2.95;1.50;;;;;;;;;;5008152;28;20232;-51
2022/07/15 02:10:41;;;;;;;3.47;1.45;;;;;;;;;;5010993;28;20260;-52
2022/07/15 02:13:07;;;;;;;2.30;2.13;;;;;;;;;;5016280;28;20224;-53
2022/07/15 02:15:34;;;;;;;7.07;2.00;;;;;;;;;;5019403;28;20232;-52
2022/07/15 02:18:00;;;;;;;7.30;1.95;;;;;;;;;;5013951;28;20307;-51
2022/07/15 02:20:27;;;;;;;3.33;1.15;;;;;;;;;;5019280;28;20229;-52
2022/07/15 02:22:57;;;;;;;9.02;1.25;;;;;;;;;;5013874;28;20316;-52
2022/07/15 02:25:26;;;;;;;6.47;1.70;;;;;;;;;;5020358;28;20667;-52
2022/07/15 02:27:56;;;;;;;3.05;1.42;;;;;;;;;;5017969;28;20241;-52
2022/07/15 02:30:22;;;;;;;4.07;1.20;;;;;;;;;;5018523;28;20233;-52
2022/07/15 02:32:48;;;;;;;5.22;1.55;;;;;;;;;;5017858;28;20240;-52
2022/07/15 02:35:15;;;;;;;4.63;1.80;;;;;;;;;;5017403;28;20711;-52
2022/07/15 02:37:41;;;;;;;4.93;1.40;;;;;;;;;;5020996;28;20308;-52
2022/07/15 02:40:08;;;;;;;3.35;1.42;;;;;;;;;;5016663;28;20239;-53
2022/07/15 02:42:36;;;;;;;2.95;1.67;;;;;;;;;;5013128;28;20982;-54
2022/07/15 02:45:03;;;;;;;2.13;1.23;;;;;;;;;;5017206;28;20236;-51
2022/07/15 02:47:29;;;;;;;3.67;1.23;;;;;;;;;;5018769;28;20235;-51
2022/07/15 02:49:56;;;;;;;4.30;1.27;;;;;;;;;;5019739;28;20245;-52
2022/07/15 02:52:22;;;;;;;2.88;1.80;;;;;;;;;;5015680;28;20236;-52
2022/07/15 02:54:49;;;;;;;2.72;1.70;;;;;;;;;;5016537;28;20244;-51
2022/07/15 02:57:16;;;;;;;7.45;2.25;;;;;;;;;;5015317;28;20243;-50
2022/07/15 02:59:43;;;;;;;11.05;1.52;;;;;;;;;;5023936;28;20255;-52
2022/07/15 03:02:10;;;;;;;5.90;1.67;;;;;;;;;;5027464;28;20242;-51
2022/07/15 03:04:37;;;;;;;2.83;1.50;;;;;;;;;;5026418;28;20229;-51
2022/07/15 03:07:04;;;;;;;2.63;1.45;;;;;;;;;;5021379;28;20244;-51
2022/07/15 03:09:30;;;;;;;7.82;1.55;;;;;;;;;;5025013;28;20347;-51
2022/07/15 03:11:57;;;;;;;4.03;1.10;;;;;;;;;;5006636;28;20318;-53
2022/07/15 03:14:23;;;;;;;6.25;1.40;;;;;;;;;;5002325;28;20746;-51
2022/07/15 03:16:51;;;;;;;5.75;1.83;;;;;;;;;;5004434;28;20237;-51
2022/07/15 03:19:17;;;;;;;5.10;1.50;;;;;;;;;;5004214;28;20241;-52
2022/07/15 03:21:43;;;;;;;5.03;1.88;;;;;;;;;;5006681;28;20233;-52
2022/07/15 03:24:11;;;;;;;4.28;1.45;;;;;;;;;;5006849;28;20325;-51
2022/07/15 03:26:38;;;;;;;6.10;2.17;;;;;;;;;;5001595;28;20233;-52
2022/07/15 03:29:05;;;;;;;4.35;1.35;;;;;;;;;;5006948;28;20233;-53
2022/07/15 03:31:31;;;;;;;5.07;1.27;;;;;;;;;;5005115;28;20252;-51
2022/07/15 03:33:59;;;;;;;10.60;2.00;;;;;;;;;;5004791;28;20237;-53
2022/07/15 03:36:25;;;;;;;4.50;1.58;;;;;;;;;;5004324;28;20237;-52
2022/07/15 03:38:52;;;;;;;6.10;2.22;;;;;;;;;;4995003;28;20233;-52
2022/07/15 03:41:19;;;;;;;2.15;1.40;;;;;;;;;;5002642;28;20287;-51
2022/07/15 03:43:45;;;;;;;8.75;1.95;;;;;;;;;;5004787;28;20229;-51
2022/07/15 03:46:11;;;;;;;2.03;1.17;;;;;;;;;;5007369;28;20237;-55
2022/07/15 03:48:38;;;;;;;2.67;1.23;;;;;;;;;;5003981;28;20237;-52
2022/07/15 03:51:06;;;;;;;6.32;1.30;;;;;;;;;;5005616;28;20244;-51
2022/07/15 03:53:32;;;;;;;4.43;1.63;;;;;;;;;;5001096;28;20256;-51
2022/07/15 03:55:58;;;;;;;5.07;1.50;;;;;;;;;;5003913;28;20240;-52
2022/07/15 03:58:25;;;;;;;4.95;1.90;;;;;;;;;;5005253;28;20236;-52
2022/07/15 04:00:51;;;;;;;6.25;2.10;;;;;;;;;;5005383;28;20715;-52
2022/07/15 04:03:17;;;;;;;5.32;1.77;;;;;;;;;;5002696;28;20251;-52
2022/07/15 04:05:44;;;;;;;4.20;1.92;;;;;;;;;;4997975;28;20720;-52
2022/07/15 04:08:12;;;;;;;3.47;1.35;;;;;;;;;;5003324;28;20747;-51
2022/07/15 04:10:38;;;;;;;5.03;1.65;;;;;;;;;;5002477;28;20718;-51
2022/07/15 04:13:04;;;;;;;4.38;1.65;;;;;;;;;;5003035;28;20728;-51
2022/07/15 04:15:31;;;;;;;6.22;1.40;;;;;;;;;;4997992;28;20276;-52
2022/07/15 04:17:58;;;;;;;4.15;1.55;;;;;;;;;;5001507;28;20859;-52
2022/07/15 04:20:24;;;;;;;6.03;2.00;;;;;;;;;;5013570;28;20272;-51
2022/07/15 04:22:51;;;;;;;7.47;1.60;;;;;;;;;;5000423;28;20244;-51
2022/07/15 04:25:19;;;;;;;2.78;1.67;;;;;;;;;;5004490;28;20237;-52
2022/07/15 04:27:46;;;;;;;6.10;2.10;;;;;;;;;;5003886;28;20287;-52
2022/07/15 04:30:12;;;;;;;6.80;1.67;;;;;;;;;;5006878;28;20315;-52
2022/07/15 04:32:39;;;;;;;8.57;2.10;;;;;;;;;;5004351;28;20233;-51
2022/07/15 04:35:06;;;;;;;4.32;1.48;;;;;;;;;;5003033;28;20237;-51
2022/07/15 04:37:33;;;;;;;5.55;2.00;;;;;;;;;;5003986;28;20241;-51
2022/07/15 04:39:59;;;;;;;4.25;1.98;;;;;;;;;;5003232;28;20238;-51
2022/07/15 04:42:27;;;;;;;4.80;1.50;;;;;;;;;;5001323;28;20237;-52
2022/07/15 04:44:54;;;;;;;3.90;2.20;;;;;;;;;;5001277;28;20241;-51
2022/07/15 04:47:23;;;;;;;5.63;2.08;;;;;;;;;;5004400;28;20238;-52
2022/07/15 04:52:33;;;;;;;7.70;2.00;;;;;;;;;;5006647;28;20240;-52
2022/07/15 04:54:59;;;;;;;2.42;1.70;;;;;;;;;;5003336;28;20630;-52
2022/07/15 04:57:27;;;;;;;5.47;1.90;;;;;;;;;;5002416;28;20230;-51
2022/07/15 04:59:53;;;;;;;2.65;1.83;;;;;;;;;;5021724;28;20239;-51
2022/07/15 05:02:19;;;;;;;3.95;1.90;;;;;;;;;;4999796;28;20241;-54
2022/07/15 05:04:46;;;;;;;4.90;1.70;;;;;;;;;;5021197;28;20240;-52
2022/07/15 05:07:13;;;;;;;2.80;1.60;;;;;;;;;;5003110;28;20646;-51
2022/07/15 05:09:39;;;;;;;4.13;1.83;;;;;;;;;;5002886;28;20325;-53
2022/07/15 05:12:06;;;;;;;6.55;2.33;;;;;;;;;;5002078;28;20229;-51
2022/07/15 05:14:33;;;;;;;2.53;1.67;;;;;;;;;;5003372;28;20283;-51
2022/07/15 05:17:00;;;;;;;3.88;1.85;;;;;;;;;;5008712;28;20227;-51
2022/07/15 05:19:26;;;;;;;3.25;1.80;;;;;;;;;;5000818;28;20264;-51
2022/07/15 05:21:53;;;;;;;4.18;2.40;;;;;;;;;;5002907;28;20235;-51
2022/07/15 05:24:19;;;;;;;4.97;2.28;;;;;;;;;;5003717;28;20237;-53
2022/07/15 05:26:45;;;;;;;6.03;1.92;;;;;;;;;;5004118;28;20362;-52
2022/07/15 05:29:12;;;;;;;5.25;2.30;;;;;;;;;;5013363;28;20236;-52
2022/07/15 05:31:40;;;;;;;5.57;2.55;;;;;;;;;;5016237;28;20248;-52
2022/07/15 05:34:06;;;;;;;4.30;2.05;;;;;;;;;;5004473;28;20316;-51
2022/07/15 05:36:33;;;;;;;7.82;2.55;;;;;;;;;;5002466;28;20851;-51
2022/07/15 05:38:59;;;;;;;4.10;1.77;;;;;;;;;;4997251;28;20242;-51
2022/07/15 05:41:25;;;;;;;7.32;2.45;;;;;;;;;;4998282;28;20240;-51
2022/07/15 05:43:52;;;;;;;6.47;2.03;;;;;;;;;;5000526;28;20324;-52
2022/07/15 05:46:18;;;;;;;6.15;1.63;;;;;;;;;;5011132;28;20255;-52
2022/07/15 05:48:46;;;;;;;4.18;1.95;;;;;;;;;;5011154;28;20243;-52
2022/07/15 05:51:12;;;;;;;2.63;1.77;;;;;;;;;;5008847;28;20237;-53
2022/07/15 05:53:38;;;;;;;4.55;1.90;;;;;;;;;;5000050;28;20242;-52
2022/07/15 05:56:06;;;;;;;4.90;1.50;;;;;;;;;;5009642;28;20229;-53
2022/07/15 05:58:32;;;;;;;5.43;1.52;;;;;;;;;;4997139;28;20245;-52
2022/07/15 06:00:58;;;;;;;2.85;1.48;;;;;;;;;;5001262;28;20235;-51
2022/07/15 06:03:25;;;;;;;4.50;1.88;;;;;;;;;;5001669;28;20256;-51
2022/07/15 06:05:52;;;;;;;2.20;1.20;;;;;;;;;;5009284;28;20261;-52
2022/07/15 06:08:19;;;;;;;6.47;1.60;;;;;;;;;;5002013;28;20229;-52
2022/07/15 06:10:45;;;;;;;4.80;1.33;;;;;;;;;;5000218;28;20249;-51
2022/07/15 06:13:12;;;;;;;3.22;1.20;;;;;;;;;;5004617;28;20240;-53
2022/07/15 06:15:38;;;;;;;4.07;1.50;;;;;;;;;;5009909;28;20842;-52
2022/07/15 06:18:05;;;;;;;2.63;1.77;;;;;;;;;;5002560;28;20237;-52
2022/07/15 06:20:31;;;;;;;3.97;1.52;;;;;;;;;;5001998;28;20225;-51
2022/07/15 06:22:59;;;;;;;3.35;1.10;;;;;;;;;;4996741;28;20548;-52
2022/07/15 06:25:25;;;;;;;4.55;1.10;;;;;;;;;;5002177;28;20244;-51
2022/07/15 06:27:52;;;;;;;3.22;1.20;;;;;;;;;;5002563;28;20324;-52
2022/07/15 06:30:19;;;;;;;4.65;1.50;;;;;;;;;;4999267;28;20609;-51
2022/07/15 06:32:45;;;;;;;3.20;0.90;;;;;;;;;;5001246;28;20229;-52
2022/07/15 06:35:12;;;;;;;4.35;1.88;;;;;;;;;;5000976;28;20241;-52
2022/07/15 06:37:38;;;;;;;2.70;1.25;;;;;;;;;;5003152;28;20288;-52
2022/07/15 06:40:07;;;;;;;4.45;1.20;;;;;;;;;;5004186;28;20233;-52
2022/07/15 06:42:33;;;;;;;5.18;1.25;;;;;;;;;;5002480;28;20303;-52
2022/07/15 06:44:59;;;;;;;5.80;1.45;;;;;;;;;;5006020;28;20225;-51
2022/07/15 06:47:26;;;;;;;3.95;1.40;;;;;;;;;;4999558;28;20316;-52
2022/07/15 06:49:53;;;;;;;3.83;1.58;;;;;;;;;;5000661;28;20244;-52
2022/07/15 06:52:19;;;;;;;4.07;1.40;;;;;;;;;;5005508;28;20229;-51
2022/07/15 06:54:45;;;;;;;6.68;1.88;;;;;;;;;;5002569;28;20241;-53
2022/07/15 06:57:16;;;;;;;3.63;1.48;;;;;;;;;;5002485;28;20316;-50
2022/07/15 06:59:42;;;;;;;3.63;1.10;;;;;;;;;;5001513;28;20233;-51
2022/07/15 07:02:09;;;;;;;1.55;0.70;;;;;;;;;;5000398;28;20728;-52
2022/07/15 07:04:35;;;;;;;2.78;1.08;;;;;;;;;;5000969;28;20715;-52
2022/07/15 07:07:01;;;;;;;3.80;0.77;;;;;;;;;;5005096;28;20225;-51
2022/07/15 07:09:28;;;;;;;4.10;1.02;;;;;;;;;;4998672;28;20236;-51
2022/07/15 07:11:54;;;;;;;5.57;1.10;;;;;;;;;;5005803;28;20245;-52
2022/07/15 07:14:22;;;;;;;1.73;0.98;;;;;;;;;;5002549;28;20244;-51
2022/07/15 07:16:48;;;;;;;3.22;1.17;;;;;;;;;;4998915;28;20251;-51
2022/07/15 07:19:15;;;;;;;1.10;0.88;;;;;;;;;;4999532;28;20235;-51
2022/07/15 07:21:41;;;;;;;1.98;0.98;;;;;;;;;;5005999;28;20312;-51
2022/07/15 07:24:08;;;;;;;1.73;1.00;;;;;;;;;;5002613;28;20244;-51
2022/07/15 07:26:34;;;;;;;2.63;0.95;;;;;;;;;;5000958;28;20254;-52
2022/07/15 07:29:01;;;;;;;1.95;1.08;;;;;;;;;;5001544;28;20229;-52
2022/07/15 07:31:28;;;;;;;1.77;1.17;;;;;;;;;;5000438;28;20244;-52
2022/07/15 07:33:56;;;;;;;5.00;1.27;;;;;;;;;;4999938;28;20245;-52
2022/07/15 07:36:22;;;;;;;3.88;1.10;;;;;;;;;;5000370;28;20716;-52
2022/07/15 07:38:48;;;;;;;1.60;0.80;;;;;;;;;;4999198;28;20312;-51
2022/07/15 07:41:15;;;;;;;4.90;1.23;;;;;;;;;;5004259;28;20248;-51
2022/07/15 07:43:41;;;;;;;0.88;0.70;;;;;;;;;;5005944;28;20241;-50
2022/07/15 07:46:08;;;;;;;2.63;1.05;;;;;;;;;;5000898;28;20229;-51
2022/07/15 07:48:36;;;;;;;5.07;1.38;;;;;;;;;;5003055;28;20759;-51
2022/07/15 07:51:03;;;;;;;1.20;0.90;;;;;;;;;;4995859;28;20244;-52
2022/07/15 07:53:29;;;;;;;4.53;1.10;;;;;;;;;;5003083;28;20245;-52
2022/07/15 07:55:56;;;;;;;1.35;0.80;;;;;;;;;;5002785;28;20248;-52
2022/07/15 07:58:22;;;;;;;3.08;1.30;;;;;;;;;;5000198;28;20711;-51
2022/07/15 08:00:48;;;;;;;2.13;1.10;;;;;;;;;;4999776;28;20257;-52
2022/07/15 08:03:16;;;;;;;3.85;1.52;;;;;;;;;;4996854;28;20236;-51
2022/07/15 08:05:43;;;;;;;1.33;1.23;;;;;;;;;;5003119;28;20252;-53
2022/07/15 08:08:11;;;;;;;4.45;1.48;;;;;;;;;;5005861;28;20233;-51
2022/07/15 08:10:37;;;;;;;3.13;1.38;;;;;;;;;;5001186;28;20770;-51
2022/07/15 08:13:04;;;;;;;4.43;2.05;;;;;;;;;;5000586;28;20241;-51
2022/07/15 08:15:30;;;;;;;5.63;1.50;;;;;;;;;;4999804;28;20248;-51
2022/07/15 08:17:57;;;;;;;2.35;1.23;;;;;;;;;;5000100;28;20234;-51
2022/07/15 08:20:23;;;;;;;5.82;1.17;;;;;;;;;;4996508;28;20312;-52
2022/07/15 08:22:57;;;;;;;4.53;0.98;;;;;;;;;;5001473;28;20225;-51
2022/07/15 08:25:24;;;;;;;4.50;1.67;;;;;;;;;;5001034;28;20235;-51
2022/07/15 08:27:50;;;;;;;3.08;1.05;;;;;;;;;;5004090;28;20240;-51
2022/07/15 08:30:16;;;;;;;1.58;0.95;;;;;;;;;;5002728;28;20229;-52
2022/07/15 08:32:43;;;;;;;1.13;0.70;;;;;;;;;;5001876;28;20243;-56
2022/07/15 08:35:09;;;;;;;3.85;0.85;;;;;;;;;;5005532;28;20244;-51
2022/07/15 08:37:37;;;;;;;1.42;0.57;;;;;;;;;;5000104;28;20237;-51
2022/07/15 08:40:05;;;;;;;2.45;0.98;;;;;;;;;;4999411;28;20241;-53
2022/07/15 08:42:32;;;;;;;1.88;0.90;;;;;;;;;;5001658;28;20237;-52
2022/07/15 08:44:58;;;;;;;2.42;1.02;;;;;;;;;;5003335;28;20237;-52
2022/07/15 08:47:24;;;;;;;4.75;1.33;;;;;;;;;;5004495;28;20229;-52
2022/07/15 08:49:54;;;;;;;0.93;0.75;;;;;;;;;;4998797;28;20232;-53
2022/07/15 08:52:20;;;;;;;3.40;1.17;;;;;;;;;;5005343;28;20245;-52
2022/07/15 08:54:47;;;;;;;2.50;0.98;;;;;;;;;;4998365;28;20724;-51
2022/07/15 08:57:15;;;;;;;1.83;0.85;;;;;;;;;;5002322;28;20229;-52
2022/07/15 08:59:42;;;;;;;3.97;0.95;;;;;;;;;;4996058;28;20628;-52
2022/07/15 09:02:10;;;;;;;2.75;1.30;;;;;;;;;;4999699;28;20233;-52
2022/07/15 09:04:57;;;;;;;2.70;1.05;;;;;;;;;;5017959;28;20286;-51
2022/07/15 09:07:23;;;;;;;1.65;1.25;;;;;;;;;;5017197;28;20231;-51
2022/07/15 09:09:51;;;;;;;2.13;1.17;;;;;;;;;;5017315;28;20762;-51
2022/07/15 09:12:19;;;;;;;3.85;1.33;;;;;;;;;;5015998;28;20237;-52
2022/07/15 09:14:46;;;;;;;2.38;0.68;;;;;;;;;;5019995;28;20236;-51
2022/07/15 09:17:20;;;;;;;2.25;1.27;;;;;;;;;;5014256;28;20465;-52
2022/07/15 09:19:57;;;;;;;2.60;1.00;;;;;;;;;;5002225;28;20286;-53
2022/07/15 09:22:23;;;;;;;2.47;1.27;;;;;;;;;;4987206;28;20239;-51
2022/07/15 09:24:50;;;;;;;4.72;0.80;;;;;;;;;;4992055;28;20253;-51
2022/07/15 09:27:34;;;;;;;3.63;1.08;;;;;;;;;;5000740;28;20225;-51
2022/07/15 09:38:26;;;;;;;1.30;0.75;;;;;;;;;;4992007;28;20270;-52
2022/07/15 09:40:53;;;;;;;4.22;1.45;;;;;;;;;;4998835;28;20233;-52
2022/07/15 09:43:19;;;;;;;1.42;0.90;;;;;;;;;;4994791;28;20241;-51
2022/07/15 09:45:47;;;;;;;2.15;0.75;;;;;;;;;;4997524;28;20703;-54
2022/07/15 09:48:13;;;;;;;1.73;0.85;;;;;;;;;;5007350;28;20236;-51
2022/07/15 09:50:40;;;;;;;2.58;1.08;;;;;;;;;;4992311;28;20229;-52
2022/07/15 09:53:10;;;;;;;2.25;0.98;;;;;;;;;;5000838;28;20296;-52
2022/07/15 09:55:37;;;;;;;3.75;0.90;;;;;;;;;;5000620;28;20226;-53
2022/07/15 09:58:04;;;;;;;1.25;0.85;;;;;;;;;;4991406;28;20257;-52
2022/07/15 10:00:31;;;;;;;1.70;0.73;;;;;;;;;;4995028;28;20406;-52
2022/07/15 10:02:59;;;;;;;2.80;1.13;;;;;;;;;;4992102;28;20233;-51
2022/07/15 10:05:27;;;;;;;2.63;0.88;;;;;;;;;;5002232;28;20228;-53
2022/07/15 10:07:56;;;;;;;5.43;0.82;;;;;;;;;;5001746;28;20320;-53
2022/07/15 10:10:23;;;;;;;6.18;1.20;;;;;;;;;;4997491;28;20656;-53
2022/07/15 10:12:53;;;;;;;1.60;0.68;;;;;;;;;;5006568;28;20240;-52
2022/07/15 10:15:25;;;;;;;0.88;0.63;;;;;;;;;;4996002;28;20240;-53
2022/07/15 10:17:56;;;;;;;1.85;0.73;;;;;;;;;;5001418;28;20271;-52
2022/07/15 10:20:41;;;;;;;3.40;0.75;;;;;;;;;;5003486;28;20247;-51
2022/07/15 10:23:14;;;;;;;3.00;1.00;;;;;;;;;;5001686;28;20255;-52
2022/07/15 10:25:51;;;;;;;2.05;1.15;;;;;;;;;;4995473;28;20742;-53
2022/07/15 10:28:21;;;;;;;2.17;0.80;;;;;;;;;;5022463;28;20243;-52
2022/07/15 10:31:07;;;;;;;2.88;1.10;;;;;;;;;;5007136;28;20237;-52
2022/07/15 10:33:34;;;;;;;4.05;0.90;;;;;;;;;;4996172;28;20313;-53
2022/07/15 10:36:06;;;;;;;3.95;0.90;;;;;;;;;;5001837;28;20241;-52
2022/07/15 10:38:32;;;;;;;2.13;1.08;;;;;;;;;;5003851;28;20245;-51
2022/07/15 10:41:00;;;;;;;2.85;1.23;;;;;;;;;;5002168;28;20229;-53
2022/07/15 10:43:43;;;;;;;3.03;1.08;;;;;;;;;;5002236;28;20316;-52
2022/07/15 10:46:18;;;;;;;3.90;1.00;;;;;;;;;;5009853;28;20235;-52
2022/07/15 10:48:44;;;;;;;2.63;0.93;;;;;;;;;;5022380;28;20238;-52
2022/07/15 10:51:13;;;;;;;1.15;0.70;;;;;;;;;;5013082;28;20328;-52
2022/07/15 10:53:43;;;;;;;2.38;0.80;;;;;;;;;;5001015;28;20237;-52
2022/07/15 10:56:30;;;;;;;2.53;0.98;;;;;;;;;;5003484;28;20236;-53
2022/07/15 10:59:19;;;;;;;5.03;1.00;;;;;;;;;;4989451;28;22311;-53
2022/07/15 11:01:46;;;;;;;1.02;0.93;;;;;;;;;;4993917;28;20266;-53
2022/07/15 11:04:14;;;;;;;2.03;0.90;;;;;;;;;;4999597;28;20245;-52
2022/07/15 11:06:59;;;;;;;1.45;0.88;;;;;;;;;;4996487;28;20259;-52
2022/07/15 11:09:46;;;;;;;2.97;1.20;;;;;;;;;;5027168;28;20228;-51
2022/07/15 11:12:12;;;;;;;2.75;0.90;;;;;;;;;;5022026;28;20232;-52
2022/07/15 11:14:46;;;;;;;2.92;0.93;;;;;;;;;;5023610;28;20652;-51
2022/07/15 11:17:13;;;;;;;0.95;0.50;;;;;;;;;;5021383;28;20260;-53
2022/07/15 11:19:40;;;;;;;1.38;0.70;;;;;;;;;;5018799;28;20234;-52
2022/07/15 11:22:09;;;;;;;3.85;0.93;;;;;;;;;;5013398;28;20726;-55
2022/07/15 11:24:36;;;;;;;1.60;0.85;;;;;;;;;;5003154;28;20320;-52
2022/07/15 11:27:03;;;;;;;1.40;0.70;;;;;;;;;;5002982;28;20248;-52
2022/07/15 11:29:41;;;;;;;4.28;1.10;;;;;;;;;;5000439;28;20229;-52
2022/07/15 11:32:08;;;;;;;2.58;0.80;;;;;;;;;;4989631;28;20328;-52
2022/07/15 11:34:43;;;;;;;1.10;0.70;;;;;;;;;;4997841;28;20760;-52
2022/07/15 11:37:10;;;;;;;1.48;0.65;;;;;;;;;;5013086;28;20237;-51
2022/07/15 11:39:37;;;;;;;4.28;1.20;;;;;;;;;;4997244;28;20233;-52
2022/07/15 11:44:49;;;;;;;0.50;0.50;;;;;;;;;;5009078;28;20247;-53
2022/07/15 11:47:16;;;;;;;2.35;1.45;;;;;;;;;;4997397;28;20259;-51
2022/07/15 11:49:43;;;;;;;1.27;0.77;;;;;;;;;;5002656;28;20320;-51
2022/07/15 11:52:10;;;;;;;1.50;0.70;;;;;;;;;;5003069;28;20311;-53
2022/07/15 11:54:37;;;;;;;1.40;0.80;;;;;;;;;;4996146;28;20745;-52
2022/07/15 11:57:06;;;;;;;3.65;0.85;;;;;;;;;;4999099;28;20222;-51
2022/07/15 11:59:33;;;;;;;1.27;0.80;;;;;;;;;;5001490;28;20233;-52
2022/07/15 12:02:03;;;;;;;1.13;0.70;;;;;;;;;;5000473;28;20338;-52
2022/07/15 12:04:29;;;;;;;3.22;1.05;;;;;;;;;;5001662;28;20244;-52
2022/07/15 12:06:56;;;;;;;2.15;0.68;;;;;;;;;;5001910;28;20237;-52
2022/07/15 12:09:22;;;;;;;2.20;0.65;;;;;;;;;;4998531;28;20236;-53
2022/07/15 12:11:48;;;;;;;1.27;0.80;;;;;;;;;;5001919;28;20229;-52
2022/07/15 12:14:20;;;;;;;1.38;0.70;;;;;;;;;;5002046;28;20237;-51
2022/07/15 12:16:47;;;;;;;1.92;1.05;;;;;;;;;;4996136;28;20768;-52
2022/07/15 12:19:15;;;;;;;2.38;0.85;;;;;;;;;;5003103;28;20229;-52
2022/07/15 12:21:42;;;;;;;1.05;0.60;;;;;;;;;;5002973;28;20233;-52
2022/07/15 12:24:09;;;;;;;1.70;0.80;;;;;;;;;;5004439;28;20648;-52
2022/07/15 12:26:38;;;;;;;1.25;0.70;;;;;;;;;;5000994;28;20236;-52
2022/07/15 12:29:05;;;;;;;0.60;0.60;;;;;;;;;;5001549;28;20236;-52
2022/07/15 12:31:34;;;;;;;0.95;0.65;;;;;;;;;;4999140;28;20233;-51
2022/07/15 12:34:00;;;;;;;1.65;0.80;;;;;;;;;;4997191;28;20245;-51
2022/07/15 12:36:28;;;;;;;3.92;0.80;;;;;;;;;;4994825;28;20288;-52
2022/07/15 12:39:09;;;;;;;2.85;0.75;;;;;;;;;;4998255;28;20241;-52
2022/07/15 12:41:36;;;;;;;4.57;1.13;;;;;;;;;;4994528;28;20238;-51
2022/07/15 12:44:03;;;;;;;0.73;0.70;;;;;;;;;;5001561;28;20237;-51
2022/07/15 12:46:45;;;;;;;1.75;0.70;;;;;;;;;;5001678;28;20240;-51
2022/07/15 12:49:12;;;;;;;1.52;0.60;;;;;;;;;;4998666;28;20233;-51
2022/07/15 12:51:39;;;;;;;0.98;0.75;;;;;;;;;;4997261;28;20236;-52
2022/07/15 12:54:06;;;;;;;0.82;0.50;;;;;;;;;;5001801;28;20244;-51
2022/07/15 12:56:50;;;;;;;2.03;0.52;;;;;;;;;;4998933;28;20232;-52
2022/07/15 12:59:16;;;;;;;4.88;1.25;;;;;;;;;;5013484;28;20224;-52
2022/07/15 13:01:44;;;;;;;1.65;0.55;;;;;;;;;;5016734;28;20711;-52
2022/07/15 13:04:10;;;;;;;1.52;0.57;;;;;;;;;;5017743;28;20836;-52
2022/07/15 13:06:38;;;;;;;2.22;0.77;;;;;;;;;;5020895;28;20256;-52
2022/07/15 13:09:04;;;;;;;1.23;0.43;;;;;;;;;;5014381;28;20232;-53
2022/07/15 13:11:31;;;;;;;3.42;1.13;;;;;;;;;;5017442;28;20240;-52
2022/07/15 13:13:57;;;;;;;2.67;0.52;;;;;;;;;;5022459;28;20235;-52
2022/07/15 13:16:24;;;;;;;2.97;0.82;;;;;;;;;;5019155;28;20239;-51
2022/07/15 13:18:50;;;;;;;1.10;0.52;;;;;;;;;;5020363;28;20726;-52
2022/07/15 13:21:16;;;;;;;2.72;0.70;;;;;;;;;;5022924;28;20288;-53
2022/07/15 13:23:44;;;;;;;2.20;0.93;;;;;;;;;;5010141;28;20605;-52
2022/07/15 13:26:10;;;;;;;1.83;0.60;;;;;;;;;;5014921;28;20237;-51
2022/07/15 13:28:37;;;;;;;1.20;0.70;;;;;;;;;;5010291;28;20240;-52
2022/07/15 13:31:03;;;;;;;4.38;1.23;;;;;;;;;;5009567;28;20303;-51
2022/07/15 13:33:31;;;;;;;1.45;0.77;;;;;;;;;;5012590;28;20317;-52
2022/07/15 13:35:58;;;;;;;4.32;0.90;;;;;;;;;;5013974;28;20229;-51
2022/07/15 13:38:24;;;;;;;1.17;0.52;;;;;;;;;;5013706;28;20221;-51
2022/07/15 13:40:52;;;;;;;2.15;0.85;;;;;;;;;;5015769;28;20260;-52
2022/07/15 13:43:18;;;;;;;5.57;1.25;;;;;;;;;;5014319;28;20243;-52
2022/07/15 13:45:44;;;;;;;2.50;1.08;;;;;;;;;;5010610;28;20232;-51
2022/07/15 13:48:11;;;;;;;3.30;1.15;;;;;;;;;;5012022;28;20228;-52
2022/07/15 13:53:32;;;;;;;2.17;1.50;;;;;;;;;;4969614;28;20704;-53
2022/07/15 13:56:00;;;;;;;3.30;0.90;;;;;;;;;;5009704;28;20236;-54
2022/07/15 13:58:27;;;;;;;2.78;0.70;;;;;;;;;;5014442;28;20229;-53
2022/07/15 14:00:53;;;;;;;3.97;1.00;;;;;;;;;;5013495;28;20692;-51
2022/07/15 14:03:20;;;;;;;2.08;0.73;;;;;;;;;;5013798;28;20237;-51
2022/07/15 14:05:47;;;;;;;1.63;1.00;;;;;;;;;;5011172;28;20239;-51
2022/07/15 14:08:13;;;;;;;2.17;1.00;;;;;;;;;;5013016;28;20739;-54
2022/07/15 14:10:39;;;;;;;0.90;0.77;;;;;;;;;;5018169;28;20233;-51
2022/07/15 14:13:08;;;;;;;3.70;1.00;;;;;;;;;;5014157;28;20231;-52
2022/07/15 14:15:35;;;;;;;2.22;1.10;;;;;;;;;;5009952;28;20283;-53
2022/07/15 14:18:01;;;;;;;1.52;1.25;;;;;;;;;;5010053;28;20259;-51
2022/07/15 14:20:27;;;;;;;1.85;1.23;;;;;;;;;;5021084;28;20242;-53
2022/07/15 14:22:54;;;;;;;2.88;0.77;;;;;;;;;;5022364;28;20315;-51
2022/07/15 14:25:21;;;;;;;5.78;0.95;;;;;;;;;;5019165;28;20240;-54
2022/07/15 14:27:47;;;;;;;1.95;0.90;;;;;;;;;;5018801;28;20236;-53
2022/07/15 14:30:16;;;;;;;4.25;0.73;;;;;;;;;;5018213;28;20235;-59
2022/07/15 14:32:42;;;;;;;1.85;0.90;;;;;;;;;;5022610;28;20232;-52
2022/07/15 14:35:09;;;;;;;2.00;1.35;;;;;;;;;;5011983;28;20245;-52
2022/07/15 14:37:35;;;;;;;3.35;1.63;;;;;;;;;;5016796;28;20239;-57
2022/07/15 14:40:02;;;;;;;5.50;2.40;;;;;;;;;;5016554;28;20231;-51
2022/07/15 14:42:28;;;;;;;3.92;1.60;;;;;;;;;;5016380;28;20244;-52
2022/07/15 14:44:54;;;;;;;3.58;2.30;;;;;;;;;;5017825;28;20624;-52
2022/07/15 14:47:22;;;;;;;2.35;1.83;;;;;;;;;;5014963;28;20244;-51
2022/07/15 14:49:49;;;;;;;2.78;1.55;;;;;;;;;;5023582;28;20332;-55
2022/07/15 14:52:15;;;;;;;4.68;1.75;;;;;;;;;;5019370;28;20240;-53
2022/07/15 14:54:41;;;;;;;3.97;1.20;;;;;;;;;;5023671;28;20243;-51
2022/07/15 14:57:08;;;;;;;2.45;1.08;;;;;;;;;;5023658;28;20245;-51
2022/07/15 14:59:36;;;;;;;1.52;1.23;;;;;;;;;;5021785;28;20256;-51
2022/07/15 15:02:03;;;;;;;2.70;2.10;;;;;;;;;;5025320;28;20715;-51
2022/07/15 15:04:31;;;;;;;4.22;1.90;;;;;;;;;;5014586;28;20244;-50